Providence, Rhode Island
Traffic Map
Current Weather Conditions
Providence, Rhode Island
Overcast Light Rain
Overcast
39°
Feels Like: 33°
Wind Chill: 33° Ceiling: 600
Heat Index: 39° Visibility: 1.5mi
Dew Point: 37° Wind: 9mph
Humidity: 93% Direction: 30° (NNE)
Pressure: 29.95in Gusts: 0mph
Raw Report DataKPVD 181551Z 03008KT 1 1/2SM -RA BR OVC006 04/03 A2995 RMK AO2 SLP141 P0001 T00390028
Traffic Incident Summary
Active as of:
Severity:
Category:
InformationThere was an issue retrieving the traffic information for this location. Please try a different location or try again shortly.
Advertisements
Track Severe Weather on mobile